sensor_id;sensor_type;location;lat;lon;timestamp;temperature;humidity
4390;DHT22;2209;48.982;8.406;2024-02-21T00:00:49;10.50;99.90
4390;DHT22;2209;48.982;8.406;2024-02-21T00:03:12;10.40;99.90
4390;DHT22;2209;48.982;8.406;2024-02-21T00:05:36;10.40;99.90
4390;DHT22;2209;48.982;8.406;2024-02-21T00:07:59;10.40;99.90
4390;DHT22;2209;48.982;8.406;2024-02-21T00:10:22;10.40;99.90
4390;DHT22;2209;48.982;8.406;2024-02-21T00:12:44;10.40;99.90
4390;DHT22;2209;48.982;8.406;2024-02-21T00:15:07;10.40;99.90
4390;DHT22;2209;48.982;8.406;2024-02-21T00:17:30;10.40;99.90
4390;DHT22;2209;48.982;8.406;2024-02-21T00:19:52;10.30;99.90
4390;DHT22;2209;48.982;8.406;2024-02-21T00:22:16;10.30;99.90
4390;DHT22;2209;48.982;8.406;2024-02-21T00:24:38;10.30;99.90
4390;DHT22;2209;48.982;8.406;2024-02-21T00:27:00;10.30;99.90
4390;DHT22;2209;48.982;8.406;2024-02-21T00:29:22;10.30;99.90
4390;DHT22;2209;48.982;8.406;2024-02-21T00:31:44;10.30;99.90
4390;DHT22;2209;48.982;8.406;2024-02-21T00:34:07;10.30;99.90
4390;DHT22;2209;48.982;8.406;2024-02-21T00:36:29;10.30;99.90
4390;DHT22;2209;48.982;8.406;2024-02-21T00:38:53;10.30;99.90
4390;DHT22;2209;48.982;8.406;2024-02-21T00:41:15;10.30;99.90
4390;DHT22;2209;48.982;8.406;2024-02-21T00:43:38;10.30;99.90
4390;DHT22;2209;48.982;8.406;2024-02-21T00:46:00;10.30;99.90
4390;DHT22;2209;48.982;8.406;2024-02-21T00:48:23;10.30;99.90
4390;DHT22;2209;48.982;8.406;2024-02-21T00:50:45;10.30;99.90
4390;DHT22;2209;48.982;8.406;2024-02-21T00:53:07;10.30;99.90
4390;DHT22;2209;48.982;8.406;2024-02-21T00:55:32;10.30;99.90
4390;DHT22;2209;48.982;8.406;2024-02-21T00:57:54;10.30;99.90
4390;DHT22;2209;48.982;8.406;2024-02-21T01:00:18;10.40;99.90
4390;DHT22;2209;48.982;8.406;2024-02-21T01:02:41;10.30;99.90
4390;DHT22;2209;48.982;8.406;2024-02-21T01:05:04;10.30;99.90
4390;DHT22;2209;48.982;8.406;2024-02-21T01:07:26;10.30;99.90
4390;DHT22;2209;48.982;8.406;2024-02-21T01:09:48;10.30;99.90
4390;DHT22;2209;48.982;8.406;2024-02-21T01:12:13;10.30;99.90
4390;DHT22;2209;48.982;8.406;2024-02-21T01:14:35;10.30;99.90
4390;DHT22;2209;48.982;8.406;2024-02-21T01:16:58;10.30;99.90
4390;DHT22;2209;48.982;8.406;2024-02-21T01:19:20;10.30;99.90
4390;DHT22;2209;48.982;8.406;2024-02-21T01:21:43;10.30;99.90
4390;DHT22;2209;48.982;8.406;2024-02-21T01:24:05;10.30;99.90
4390;DHT22;2209;48.982;8.406;2024-02-21T01:26:27;10.20;99.90
4390;DHT22;2209;48.982;8.406;2024-02-21T01:28:51;10.20;99.90
4390;DHT22;2209;48.982;8.406;2024-02-21T01:31:14;10.20;99.90
4390;DHT22;2209;48.982;8.406;2024-02-21T01:33:36;10.20;99.90
4390;DHT22;2209;48.982;8.406;2024-02-21T01:36:00;10.20;99.90
4390;DHT22;2209;48.982;8.406;2024-02-21T01:38:22;10.20;99.90
4390;DHT22;2209;48.982;8.406;2024-02-21T01:40:45;10.20;99.90
4390;DHT22;2209;48.982;8.406;2024-02-21T01:43:15;10.20;99.90
4390;DHT22;2209;48.982;8.406;2024-02-21T01:45:40;10.20;99.90
4390;DHT22;2209;48.982;8.406;2024-02-21T01:48:03;10.20;99.90
4390;DHT22;2209;48.982;8.406;2024-02-21T01:50:26;10.10;99.90
4390;DHT22;2209;48.982;8.406;2024-02-21T01:52:49;10.10;99.90
4390;DHT22;2209;48.982;8.406;2024-02-21T01:55:13;10.10;99.90
4390;DHT22;2209;48.982;8.406;2024-02-21T01:57:36;10.10;99.90
4390;DHT22;2209;48.982;8.406;2024-02-21T02:00:00;10.10;99.90
4390;DHT22;2209;48.982;8.406;2024-02-21T02:02:24;10.10;99.90
4390;DHT22;2209;48.982;8.406;2024-02-21T02:04:47;10.10;99.90
4390;DHT22;2209;48.982;8.406;2024-02-21T02:07:09;10.20;99.90
4390;DHT22;2209;48.982;8.406;2024-02-21T02:09:31;10.20;99.90
4390;DHT22;2209;48.982;8.406;2024-02-21T02:11:54;10.20;99.90
4390;DHT22;2209;48.982;8.406;2024-02-21T02:14:17;10.20;99.90
4390;DHT22;2209;48.982;8.406;2024-02-21T02:16:39;10.20;99.90
4390;DHT22;2209;48.982;8.406;2024-02-21T02:19:03;10.20;99.90
4390;DHT22;2209;48.982;8.406;2024-02-21T02:21:29;10.20;99.90
4390;DHT22;2209;48.982;8.406;2024-02-21T02:23:53;10.20;99.90
4390;DHT22;2209;48.982;8.406;2024-02-21T02:26:16;10.20;99.90
4390;DHT22;2209;48.982;8.406;2024-02-21T02:28:38;10.20;99.90
4390;DHT22;2209;48.982;8.406;2024-02-21T02:31:01;10.20;99.90
4390;DHT22;2209;48.982;8.406;2024-02-21T02:33:25;10.20;99.90
4390;DHT22;2209;48.982;8.406;2024-02-21T02:35:47;10.10;99.90
4390;DHT22;2209;48.982;8.406;2024-02-21T02:38:09;10.10;99.90
4390;DHT22;2209;48.982;8.406;2024-02-21T02:40:35;10.10;99.90
4390;DHT22;2209;48.982;8.406;2024-02-21T02:42:57;10.10;99.90
4390;DHT22;2209;48.982;8.406;2024-02-21T02:45:20;10.20;99.90
4390;DHT22;2209;48.982;8.406;2024-02-21T02:47:44;10.20;99.90
4390;DHT22;2209;48.982;8.406;2024-02-21T02:50:07;10.10;99.90
4390;DHT22;2209;48.982;8.406;2024-02-21T02:52:30;10.10;99.90
4390;DHT22;2209;48.982;8.406;2024-02-21T02:54:52;10.10;99.90
4390;DHT22;2209;48.982;8.406;2024-02-21T02:57:18;10.10;99.90
4390;DHT22;2209;48.982;8.406;2024-02-21T02:59:40;10.10;99.90
4390;DHT22;2209;48.982;8.406;2024-02-21T03:02:03;10.00;99.90
4390;DHT22;2209;48.982;8.406;2024-02-21T03:04:25;10.10;99.90
4390;DHT22;2209;48.982;8.406;2024-02-21T03:06:47;10.10;99.90
4390;DHT22;2209;48.982;8.406;2024-02-21T03:09:10;10.00;99.90
4390;DHT22;2209;48.982;8.406;2024-02-21T03:11:33;10.00;99.90
4390;DHT22;2209;48.982;8.406;2024-02-21T03:13:57;10.00;99.90
4390;DHT22;2209;48.982;8.406;2024-02-21T03:16:19;10.00;99.90
4390;DHT22;2209;48.982;8.406;2024-02-21T03:18:42;10.00;99.90
4390;DHT22;2209;48.982;8.406;2024-02-21T03:21:04;10.00;99.90
4390;DHT22;2209;48.982;8.406;2024-02-21T03:23:27;10.00;99.90
4390;DHT22;2209;48.982;8.406;2024-02-21T03:25:49;10.00;99.90
4390;DHT22;2209;48.982;8.406;2024-02-21T03:28:12;10.00;99.90
4390;DHT22;2209;48.982;8.406;2024-02-21T03:30:36;10.00;99.90
4390;DHT22;2209;48.982;8.406;2024-02-21T03:32:58;10.00;99.90
4390;DHT22;2209;48.982;8.406;2024-02-21T03:35:22;10.00;99.90
4390;DHT22;2209;48.982;8.406;2024-02-21T03:37:47;10.00;99.90
4390;DHT22;2209;48.982;8.406;2024-02-21T03:40:10;10.00;99.90
4390;DHT22;2209;48.982;8.406;2024-02-21T03:42:32;10.10;99.90
4390;DHT22;2209;48.982;8.406;2024-02-21T03:44:55;10.00;99.90
4390;DHT22;2209;48.982;8.406;2024-02-21T03:47:19;10.00;99.90
4390;DHT22;2209;48.982;8.406;2024-02-21T03:49:42;10.00;99.90
4390;DHT22;2209;48.982;8.406;2024-02-21T03:52:04;10.00;99.90
4390;DHT22;2209;48.982;8.406;2024-02-21T03:54:27;10.00;99.90
4390;DHT22;2209;48.982;8.406;2024-02-21T03:56:49;10.00;99.90
4390;DHT22;2209;48.982;8.406;2024-02-21T03:59:12;10.00;99.90
4390;DHT22;2209;48.982;8.406;2024-02-21T04:01:34;10.00;99.90
4390;DHT22;2209;48.982;8.406;2024-02-21T04:03:58;10.00;99.90
4390;DHT22;2209;48.982;8.406;2024-02-21T04:06:20;9.90;99.90
4390;DHT22;2209;48.982;8.406;2024-02-21T04:08:42;9.90;99.90
4390;DHT22;2209;48.982;8.406;2024-02-21T04:11:05;9.80;99.90
4390;DHT22;2209;48.982;8.406;2024-02-21T04:13:27;9.80;99.90
4390;DHT22;2209;48.982;8.406;2024-02-21T04:15:50;9.80;99.90
4390;DHT22;2209;48.982;8.406;2024-02-21T04:18:12;9.90;99.90
4390;DHT22;2209;48.982;8.406;2024-02-21T04:20:37;9.80;99.90
4390;DHT22;2209;48.982;8.406;2024-02-21T04:22:59;9.80;99.90
4390;DHT22;2209;48.982;8.406;2024-02-21T04:25:22;9.80;99.90
4390;DHT22;2209;48.982;8.406;2024-02-21T04:27:44;9.80;99.90
4390;DHT22;2209;48.982;8.406;2024-02-21T04:30:07;9.70;99.90
4390;DHT22;2209;48.982;8.406;2024-02-21T04:32:30;9.70;99.90
4390;DHT22;2209;48.982;8.406;2024-02-21T04:34:53;9.70;99.90
4390;DHT22;2209;48.982;8.406;2024-02-21T04:37:16;9.70;99.90
4390;DHT22;2209;48.982;8.406;2024-02-21T04:39:39;9.70;99.90
4390;DHT22;2209;48.982;8.406;2024-02-21T04:42:01;9.70;99.90
4390;DHT22;2209;48.982;8.406;2024-02-21T04:44:24;9.70;99.90
4390;DHT22;2209;48.982;8.406;2024-02-21T04:46:46;9.70;99.90
4390;DHT22;2209;48.982;8.406;2024-02-21T04:49:09;9.70;99.90
4390;DHT22;2209;48.982;8.406;2024-02-21T04:51:31;9.60;99.90
4390;DHT22;2209;48.982;8.406;2024-02-21T04:53:55;9.60;99.90
4390;DHT22;2209;48.982;8.406;2024-02-21T04:56:17;9.60;99.90
4390;DHT22;2209;48.982;8.406;2024-02-21T04:58:40;9.60;99.90
4390;DHT22;2209;48.982;8.406;2024-02-21T05:01:02;9.60;99.90
4390;DHT22;2209;48.982;8.406;2024-02-21T05:03:25;9.60;99.90
4390;DHT22;2209;48.982;8.406;2024-02-21T05:05:47;9.50;99.90
4390;DHT22;2209;48.982;8.406;2024-02-21T05:08:10;9.50;99.90
4390;DHT22;2209;48.982;8.406;2024-02-21T05:10:34;9.50;99.90
4390;DHT22;2209;48.982;8.406;2024-02-21T05:12:56;9.50;99.90
4390;DHT22;2209;48.982;8.406;2024-02-21T05:15:19;9.40;99.90
4390;DHT22;2209;48.982;8.406;2024-02-21T05:17:41;9.30;99.90
4390;DHT22;2209;48.982;8.406;2024-02-21T05:20:05;9.40;99.90
4390;DHT22;2209;48.982;8.406;2024-02-21T05:22:28;9.40;99.90
4390;DHT22;2209;48.982;8.406;2024-02-21T05:24:50;9.40;99.90
4390;DHT22;2209;48.982;8.406;2024-02-21T05:27:14;9.30;99.90
4390;DHT22;2209;48.982;8.406;2024-02-21T05:29:37;9.40;99.90
4390;DHT22;2209;48.982;8.406;2024-02-21T05:31:59;9.40;99.90
4390;DHT22;2209;48.982;8.406;2024-02-21T05:34:22;9.40;99.90
4390;DHT22;2209;48.982;8.406;2024-02-21T05:36:44;9.40;99.90
4390;DHT22;2209;48.982;8.406;2024-02-21T05:39:07;9.30;99.90
4390;DHT22;2209;48.982;8.406;2024-02-21T05:41:29;9.30;99.90
4390;DHT22;2209;48.982;8.406;2024-02-21T05:43:53;9.30;99.90
4390;DHT22;2209;48.982;8.406;2024-02-21T05:46:19;9.30;99.90
4390;DHT22;2209;48.982;8.406;2024-02-21T05:48:41;9.30;99.90
4390;DHT22;2209;48.982;8.406;2024-02-21T05:51:04;9.30;99.90
4390;DHT22;2209;48.982;8.406;2024-02-21T05:53:27;9.20;99.90
4390;DHT22;2209;48.982;8.406;2024-02-21T05:55:50;9.20;99.90
4390;DHT22;2209;48.982;8.406;2024-02-21T05:58:12;9.20;99.90
4390;DHT22;2209;48.982;8.406;2024-02-21T06:00:37;9.20;99.90
4390;DHT22;2209;48.982;8.406;2024-02-21T06:03:00;9.20;99.90
4390;DHT22;2209;48.982;8.406;2024-02-21T06:05:26;9.20;99.90
4390;DHT22;2209;48.982;8.406;2024-02-21T06:07:49;9.10;99.90
4390;DHT22;2209;48.982;8.406;2024-02-21T06:10:11;9.10;99.90
4390;DHT22;2209;48.982;8.406;2024-02-21T06:12:46;9.10;99.90
4390;DHT22;2209;48.982;8.406;2024-02-21T06:15:09;9.10;99.90
4390;DHT22;2209;48.982;8.406;2024-02-21T06:17:34;9.00;99.90
4390;DHT22;2209;48.982;8.406;2024-02-21T06:19:57;9.00;99.90
4390;DHT22;2209;48.982;8.406;2024-02-21T06:22:20;9.10;99.90
4390;DHT22;2209;48.982;8.406;2024-02-21T06:24:43;9.10;99.90
4390;DHT22;2209;48.982;8.406;2024-02-21T06:27:06;9.10;99.90
4390;DHT22;2209;48.982;8.406;2024-02-21T06:29:29;9.10;99.90
4390;DHT22;2209;48.982;8.406;2024-02-21T06:31:52;9.20;99.90
4390;DHT22;2209;48.982;8.406;2024-02-21T06:34:16;9.20;99.90
4390;DHT22;2209;48.982;8.406;2024-02-21T06:36:41;9.20;99.90
4390;DHT22;2209;48.982;8.406;2024-02-21T06:39:05;9.20;99.90
4390;DHT22;2209;48.982;8.406;2024-02-21T06:41:28;9.20;99.90
4390;DHT22;2209;48.982;8.406;2024-02-21T06:43:52;9.20;99.90
4390;DHT22;2209;48.982;8.406;2024-02-21T06:46:23;9.20;99.90
4390;DHT22;2209;48.982;8.406;2024-02-21T06:48:47;9.20;99.90
4390;DHT22;2209;48.982;8.406;2024-02-21T06:51:11;9.20;99.90
4390;DHT22;2209;48.982;8.406;2024-02-21T06:53:35;9.10;99.90
4390;DHT22;2209;48.982;8.406;2024-02-21T06:55:59;9.10;99.90
4390;DHT22;2209;48.982;8.406;2024-02-21T06:58:22;9.10;99.90
4390;DHT22;2209;48.982;8.406;2024-02-21T07:00:45;9.10;99.90
4390;DHT22;2209;48.982;8.406;2024-02-21T07:03:08;9.10;99.90
4390;DHT22;2209;48.982;8.406;2024-02-21T07:05:31;9.00;99.90
4390;DHT22;2209;48.982;8.406;2024-02-21T07:07:55;9.00;99.90
4390;DHT22;2209;48.982;8.406;2024-02-21T07:10:18;8.90;99.90
4390;DHT22;2209;48.982;8.406;2024-02-21T07:12:40;8.90;99.90
4390;DHT22;2209;48.982;8.406;2024-02-21T07:15:05;8.90;99.90
4390;DHT22;2209;48.982;8.406;2024-02-21T07:17:28;8.90;99.90
4390;DHT22;2209;48.982;8.406;2024-02-21T07:19:50;8.90;99.90
4390;DHT22;2209;48.982;8.406;2024-02-21T07:22:14;8.90;99.90
4390;DHT22;2209;48.982;8.406;2024-02-21T07:24:38;8.90;99.90
4390;DHT22;2209;48.982;8.406;2024-02-21T07:27:01;9.00;99.90
4390;DHT22;2209;48.982;8.406;2024-02-21T07:29:25;9.00;99.90
4390;DHT22;2209;48.982;8.406;2024-02-21T07:31:48;9.00;99.90
4390;DHT22;2209;48.982;8.406;2024-02-21T07:34:13;9.00;99.90
4390;DHT22;2209;48.982;8.406;2024-02-21T07:36:36;9.00;99.90
4390;DHT22;2209;48.982;8.406;2024-02-21T07:39:00;9.00;99.90
4390;DHT22;2209;48.982;8.406;2024-02-21T07:41:24;9.10;99.90
4390;DHT22;2209;48.982;8.406;2024-02-21T07:43:47;9.00;99.90
4390;DHT22;2209;48.982;8.406;2024-02-21T07:46:10;9.00;99.90
4390;DHT22;2209;48.982;8.406;2024-02-21T07:48:32;9.00;99.90
4390;DHT22;2209;48.982;8.406;2024-02-21T07:50:55;9.00;99.90
4390;DHT22;2209;48.982;8.406;2024-02-21T07:53:19;9.00;99.90
4390;DHT22;2209;48.982;8.406;2024-02-21T07:55:42;9.10;99.90
4390;DHT22;2209;48.982;8.406;2024-02-21T07:58:06;9.10;99.90
4390;DHT22;2209;48.982;8.406;2024-02-21T08:00:29;9.10;99.90
4390;DHT22;2209;48.982;8.406;2024-02-21T08:02:52;9.10;99.90
4390;DHT22;2209;48.982;8.406;2024-02-21T08:05:15;9.10;99.90
4390;DHT22;2209;48.982;8.406;2024-02-21T08:07:38;9.10;99.90
4390;DHT22;2209;48.982;8.406;2024-02-21T08:10:00;9.10;99.90
4390;DHT22;2209;48.982;8.406;2024-02-21T08:12:23;9.10;99.90
4390;DHT22;2209;48.982;8.406;2024-02-21T08:14:48;9.20;99.90
4390;DHT22;2209;48.982;8.406;2024-02-21T08:17:10;9.20;99.90
4390;DHT22;2209;48.982;8.406;2024-02-21T08:19:33;9.20;99.90
4390;DHT22;2209;48.982;8.406;2024-02-21T08:21:56;9.20;99.90
4390;DHT22;2209;48.982;8.406;2024-02-21T08:24:19;9.20;99.90
4390;DHT22;2209;48.982;8.406;2024-02-21T08:26:44;9.20;99.90
4390;DHT22;2209;48.982;8.406;2024-02-21T08:29:07;9.20;99.90
4390;DHT22;2209;48.982;8.406;2024-02-21T08:31:31;9.20;99.90
4390;DHT22;2209;48.982;8.406;2024-02-21T08:33:55;9.20;99.90
4390;DHT22;2209;48.982;8.406;2024-02-21T08:36:23;9.20;99.90
4390;DHT22;2209;48.982;8.406;2024-02-21T08:38:46;9.20;99.90
4390;DHT22;2209;48.982;8.406;2024-02-21T08:41:09;9.20;99.90
4390;DHT22;2209;48.982;8.406;2024-02-21T08:43:32;9.20;99.90
4390;DHT22;2209;48.982;8.406;2024-02-21T08:45:57;9.30;99.90
4390;DHT22;2209;48.982;8.406;2024-02-21T08:48:21;9.30;99.90
4390;DHT22;2209;48.982;8.406;2024-02-21T08:50:45;9.30;99.90
4390;DHT22;2209;48.982;8.406;2024-02-21T08:53:07;9.30;99.90
4390;DHT22;2209;48.982;8.406;2024-02-21T08:55:30;9.30;99.90
4390;DHT22;2209;48.982;8.406;2024-02-21T08:57:53;9.30;99.90
4390;DHT22;2209;48.982;8.406;2024-02-21T09:00:16;9.30;99.90
4390;DHT22;2209;48.982;8.406;2024-02-21T09:02:40;9.30;99.90
4390;DHT22;2209;48.982;8.406;2024-02-21T09:05:06;9.40;99.90
4390;DHT22;2209;48.982;8.406;2024-02-21T09:07:29;9.40;99.90
4390;DHT22;2209;48.982;8.406;2024-02-21T09:09:52;9.40;99.90
4390;DHT22;2209;48.982;8.406;2024-02-21T09:12:14;9.40;99.90
4390;DHT22;2209;48.982;8.406;2024-02-21T09:14:38;9.40;99.90
4390;DHT22;2209;48.982;8.406;2024-02-21T09:17:00;9.40;99.90
4390;DHT22;2209;48.982;8.406;2024-02-21T09:19:23;9.40;99.90
4390;DHT22;2209;48.982;8.406;2024-02-21T09:21:47;9.40;99.90
4390;DHT22;2209;48.982;8.406;2024-02-21T09:24:10;9.50;99.90
4390;DHT22;2209;48.982;8.406;2024-02-21T09:26:32;9.50;99.90
4390;DHT22;2209;48.982;8.406;2024-02-21T09:28:55;9.40;99.90
4390;DHT22;2209;48.982;8.406;2024-02-21T09:31:18;9.50;99.90
4390;DHT22;2209;48.982;8.406;2024-02-21T09:33:56;9.50;99.90
4390;DHT22;2209;48.982;8.406;2024-02-21T09:36:19;9.50;99.90
4390;DHT22;2209;48.982;8.406;2024-02-21T09:38:44;9.50;99.90
4390;DHT22;2209;48.982;8.406;2024-02-21T09:41:15;9.50;99.90
4390;DHT22;2209;48.982;8.406;2024-02-21T09:43:40;9.50;99.90
4390;DHT22;2209;48.982;8.406;2024-02-21T09:46:04;9.50;99.90
4390;DHT22;2209;48.982;8.406;2024-02-21T09:48:38;9.60;99.90
4390;DHT22;2209;48.982;8.406;2024-02-21T09:51:03;9.70;99.90
4390;DHT22;2209;48.982;8.406;2024-02-21T09:53:27;9.70;99.90
4390;DHT22;2209;48.982;8.406;2024-02-21T09:55:52;9.80;99.90
4390;DHT22;2209;48.982;8.406;2024-02-21T09:58:15;9.80;99.90
4390;DHT22;2209;48.982;8.406;2024-02-21T10:00:38;9.80;99.90
4390;DHT22;2209;48.982;8.406;2024-02-21T10:03:01;9.80;99.90
4390;DHT22;2209;48.982;8.406;2024-02-21T10:05:26;9.80;99.90
4390;DHT22;2209;48.982;8.406;2024-02-21T10:07:49;9.80;99.90
4390;DHT22;2209;48.982;8.406;2024-02-21T10:10:12;9.90;99.90
4390;DHT22;2209;48.982;8.406;2024-02-21T10:12:37;9.90;99.90
4390;DHT22;2209;48.982;8.406;2024-02-21T10:15:10;9.90;99.90
4390;DHT22;2209;48.982;8.406;2024-02-21T10:17:33;9.90;99.90
4390;DHT22;2209;48.982;8.406;2024-02-21T10:20:02;9.90;99.90
4390;DHT22;2209;48.982;8.406;2024-02-21T10:22:29;9.90;99.90
4390;DHT22;2209;48.982;8.406;2024-02-21T10:25:07;10.00;99.90
4390;DHT22;2209;48.982;8.406;2024-02-21T10:27:30;10.00;99.90
4390;DHT22;2209;48.982;8.406;2024-02-21T10:29:54;10.00;99.90
4390;DHT22;2209;48.982;8.406;2024-02-21T10:32:17;10.00;99.90
4390;DHT22;2209;48.982;8.406;2024-02-21T10:34:40;10.10;99.90
4390;DHT22;2209;48.982;8.406;2024-02-21T10:37:04;10.10;99.90
4390;DHT22;2209;48.982;8.406;2024-02-21T10:39:27;10.10;99.90
4390;DHT22;2209;48.982;8.406;2024-02-21T10:41:51;10.10;99.90
4390;DHT22;2209;48.982;8.406;2024-02-21T10:44:15;10.10;99.90
4390;DHT22;2209;48.982;8.406;2024-02-21T10:46:40;10.10;99.90
4390;DHT22;2209;48.982;8.406;2024-02-21T10:49:10;10.20;99.90
4390;DHT22;2209;48.982;8.406;2024-02-21T10:51:39;10.20;99.90
4390;DHT22;2209;48.982;8.406;2024-02-21T10:54:13;10.30;99.90
4390;DHT22;2209;48.982;8.406;2024-02-21T10:56:39;10.30;99.90
4390;DHT22;2209;48.982;8.406;2024-02-21T10:59:05;10.30;99.90
4390;DHT22;2209;48.982;8.406;2024-02-21T11:01:30;10.40;99.90
4390;DHT22;2209;48.982;8.406;2024-02-21T11:04:01;10.40;99.90
4390;DHT22;2209;48.982;8.406;2024-02-21T11:06:26;10.40;99.90
4390;DHT22;2209;48.982;8.406;2024-02-21T11:09:00;10.40;99.90
4390;DHT22;2209;48.982;8.406;2024-02-21T11:11:24;10.40;99.90
4390;DHT22;2209;48.982;8.406;2024-02-21T11:13:47;10.50;99.90
4390;DHT22;2209;48.982;8.406;2024-02-21T11:16:12;10.50;99.90
4390;DHT22;2209;48.982;8.406;2024-02-21T11:18:43;10.50;99.90
4390;DHT22;2209;48.982;8.406;2024-02-21T11:21:07;10.60;99.90
4390;DHT22;2209;48.982;8.406;2024-02-21T11:23:30;10.60;99.90
4390;DHT22;2209;48.982;8.406;2024-02-21T11:25:52;10.60;99.90
4390;DHT22;2209;48.982;8.406;2024-02-21T11:28:26;10.70;99.90
4390;DHT22;2209;48.982;8.406;2024-02-21T11:30:50;10.70;99.90
4390;DHT22;2209;48.982;8.406;2024-02-21T11:33:12;10.70;99.90
4390;DHT22;2209;48.982;8.406;2024-02-21T11:35:36;10.70;99.90
4390;DHT22;2209;48.982;8.406;2024-02-21T11:38:09;10.70;99.90
4390;DHT22;2209;48.982;8.406;2024-02-21T11:40:37;10.70;99.90
4390;DHT22;2209;48.982;8.406;2024-02-21T11:43:00;10.80;99.90
4390;DHT22;2209;48.982;8.406;2024-02-21T11:45:26;10.70;99.90
4390;DHT22;2209;48.982;8.406;2024-02-21T11:47:48;10.80;99.90
4390;DHT22;2209;48.982;8.406;2024-02-21T11:50:14;10.80;99.90
4390;DHT22;2209;48.982;8.406;2024-02-21T11:52:37;10.80;99.90
4390;DHT22;2209;48.982;8.406;2024-02-21T11:55:02;10.80;99.90
4390;DHT22;2209;48.982;8.406;2024-02-21T11:57:26;10.80;99.90
4390;DHT22;2209;48.982;8.406;2024-02-21T11:59:51;10.90;99.90
4390;DHT22;2209;48.982;8.406;2024-02-21T12:02:21;10.90;99.90
4390;DHT22;2209;48.982;8.406;2024-02-21T12:04:44;10.90;99.90
4390;DHT22;2209;48.982;8.406;2024-02-21T12:07:07;10.90;99.90
4390;DHT22;2209;48.982;8.406;2024-02-21T12:09:30;10.90;99.90
4390;DHT22;2209;48.982;8.406;2024-02-21T12:11:59;10.90;99.90
4390;DHT22;2209;48.982;8.406;2024-02-21T12:14:25;10.80;99.90
4390;DHT22;2209;48.982;8.406;2024-02-21T12:16:48;10.80;99.90
4390;DHT22;2209;48.982;8.406;2024-02-21T12:19:13;10.90;99.90
4390;DHT22;2209;48.982;8.406;2024-02-21T12:21:38;10.90;99.90
4390;DHT22;2209;48.982;8.406;2024-02-21T12:24:12;11.00;99.90
4390;DHT22;2209;48.982;8.406;2024-02-21T12:26:35;10.90;99.90
4390;DHT22;2209;48.982;8.406;2024-02-21T12:29:00;11.00;99.90
4390;DHT22;2209;48.982;8.406;2024-02-21T12:31:23;11.00;99.90
4390;DHT22;2209;48.982;8.406;2024-02-21T12:33:46;11.00;99.90
4390;DHT22;2209;48.982;8.406;2024-02-21T12:36:09;11.00;99.90
4390;DHT22;2209;48.982;8.406;2024-02-21T12:38:32;11.00;99.90
4390;DHT22;2209;48.982;8.406;2024-02-21T12:40:55;11.00;99.90
4390;DHT22;2209;48.982;8.406;2024-02-21T12:43:18;11.00;99.90
4390;DHT22;2209;48.982;8.406;2024-02-21T12:45:42;11.10;99.90
4390;DHT22;2209;48.982;8.406;2024-02-21T12:48:05;11.10;99.90
4390;DHT22;2209;48.982;8.406;2024-02-21T12:50:28;11.10;99.90
4390;DHT22;2209;48.982;8.406;2024-02-21T12:52:52;11.10;99.90
4390;DHT22;2209;48.982;8.406;2024-02-21T12:55:15;11.10;99.90
4390;DHT22;2209;48.982;8.406;2024-02-21T12:57:38;11.10;99.90
4390;DHT22;2209;48.982;8.406;2024-02-21T13:00:02;11.20;99.90
4390;DHT22;2209;48.982;8.406;2024-02-21T13:02:32;11.10;99.90
4390;DHT22;2209;48.982;8.406;2024-02-21T13:04:57;11.20;99.90
4390;DHT22;2209;48.982;8.406;2024-02-21T13:07:22;11.20;99.90
4390;DHT22;2209;48.982;8.406;2024-02-21T13:09:45;11.20;99.90
4390;DHT22;2209;48.982;8.406;2024-02-21T13:12:08;11.20;99.90
4390;DHT22;2209;48.982;8.406;2024-02-21T13:14:32;11.20;99.90
4390;DHT22;2209;48.982;8.406;2024-02-21T13:16:56;11.20;99.90
4390;DHT22;2209;48.982;8.406;2024-02-21T13:19:20;11.20;99.90
4390;DHT22;2209;48.982;8.406;2024-02-21T13:21:43;11.20;99.90
4390;DHT22;2209;48.982;8.406;2024-02-21T13:24:06;11.20;99.90
4390;DHT22;2209;48.982;8.406;2024-02-21T13:26:29;11.20;99.90
4390;DHT22;2209;48.982;8.406;2024-02-21T13:28:52;11.20;99.90
4390;DHT22;2209;48.982;8.406;2024-02-21T13:31:15;11.20;99.90
4390;DHT22;2209;48.982;8.406;2024-02-21T13:33:38;11.20;99.90
4390;DHT22;2209;48.982;8.406;2024-02-21T13:36:03;11.20;99.90
4390;DHT22;2209;48.982;8.406;2024-02-21T13:38:26;11.20;99.90
4390;DHT22;2209;48.982;8.406;2024-02-21T13:40:49;11.20;99.90
4390;DHT22;2209;48.982;8.406;2024-02-21T13:43:12;11.20;99.90
4390;DHT22;2209;48.982;8.406;2024-02-21T13:45:35;11.20;99.90
4390;DHT22;2209;48.982;8.406;2024-02-21T13:47:58;11.30;99.90
4390;DHT22;2209;48.982;8.406;2024-02-21T13:50:23;11.20;99.90
4390;DHT22;2209;48.982;8.406;2024-02-21T13:52:48;11.20;99.90
4390;DHT22;2209;48.982;8.406;2024-02-21T13:55:10;11.20;99.90
4390;DHT22;2209;48.982;8.406;2024-02-21T13:57:33;11.20;99.90
4390;DHT22;2209;48.982;8.406;2024-02-21T13:59:56;11.20;99.90
4390;DHT22;2209;48.982;8.406;2024-02-21T14:02:20;11.20;99.90
4390;DHT22;2209;48.982;8.406;2024-02-21T14:04:43;11.20;99.90
4390;DHT22;2209;48.982;8.406;2024-02-21T14:07:06;11.20;99.90
4390;DHT22;2209;48.982;8.406;2024-02-21T14:09:31;11.20;99.90
4390;DHT22;2209;48.982;8.406;2024-02-21T14:11:54;11.20;99.90
4390;DHT22;2209;48.982;8.406;2024-02-21T14:14:17;11.20;99.90
4390;DHT22;2209;48.982;8.406;2024-02-21T14:16:40;11.20;99.90
4390;DHT22;2209;48.982;8.406;2024-02-21T14:19:02;11.30;99.90
4390;DHT22;2209;48.982;8.406;2024-02-21T14:21:28;11.30;99.90
4390;DHT22;2209;48.982;8.406;2024-02-21T14:23:51;11.20;99.90
4390;DHT22;2209;48.982;8.406;2024-02-21T14:26:15;11.20;99.90
4390;DHT22;2209;48.982;8.406;2024-02-21T14:28:38;11.30;99.90
4390;DHT22;2209;48.982;8.406;2024-02-21T14:31:01;11.30;99.90
4390;DHT22;2209;48.982;8.406;2024-02-21T14:33:25;11.30;99.90
4390;DHT22;2209;48.982;8.406;2024-02-21T14:35:47;11.30;99.90
4390;DHT22;2209;48.982;8.406;2024-02-21T14:38:10;11.30;99.90
4390;DHT22;2209;48.982;8.406;2024-02-21T14:40:36;11.30;99.90
4390;DHT22;2209;48.982;8.406;2024-02-21T14:43:01;11.40;99.90
4390;DHT22;2209;48.982;8.406;2024-02-21T14:45:25;11.30;99.90
4390;DHT22;2209;48.982;8.406;2024-02-21T14:47:48;11.30;99.90
4390;DHT22;2209;48.982;8.406;2024-02-21T14:50:18;11.30;99.90
4390;DHT22;2209;48.982;8.406;2024-02-21T14:52:41;11.40;99.90
4390;DHT22;2209;48.982;8.406;2024-02-21T14:55:06;11.40;99.90
4390;DHT22;2209;48.982;8.406;2024-02-21T14:57:30;11.30;99.90
4390;DHT22;2209;48.982;8.406;2024-02-21T14:59:55;11.30;99.90
4390;DHT22;2209;48.982;8.406;2024-02-21T15:02:22;11.30;99.90
4390;DHT22;2209;48.982;8.406;2024-02-21T15:04:45;11.30;99.90
4390;DHT22;2209;48.982;8.406;2024-02-21T15:07:08;11.30;99.90
4390;DHT22;2209;48.982;8.406;2024-02-21T15:09:31;11.30;99.90
4390;DHT22;2209;48.982;8.406;2024-02-21T15:11:56;11.30;99.90
4390;DHT22;2209;48.982;8.406;2024-02-21T15:14:22;11.30;99.90
4390;DHT22;2209;48.982;8.406;2024-02-21T15:16:47;11.30;99.90
4390;DHT22;2209;48.982;8.406;2024-02-21T15:19:10;11.30;99.90
4390;DHT22;2209;48.982;8.406;2024-02-21T15:21:32;11.30;99.90
4390;DHT22;2209;48.982;8.406;2024-02-21T15:23:55;11.30;99.90
4390;DHT22;2209;48.982;8.406;2024-02-21T15:26:19;11.30;99.90
4390;DHT22;2209;48.982;8.406;2024-02-21T15:28:54;11.30;99.90
4390;DHT22;2209;48.982;8.406;2024-02-21T15:31:20;11.30;99.90
4390;DHT22;2209;48.982;8.406;2024-02-21T15:33:50;11.30;99.90
4390;DHT22;2209;48.982;8.406;2024-02-21T15:36:13;11.30;99.90
4390;DHT22;2209;48.982;8.406;2024-02-21T15:38:37;11.30;99.90
4390;DHT22;2209;48.982;8.406;2024-02-21T15:41:00;11.30;99.90
4390;DHT22;2209;48.982;8.406;2024-02-21T15:43:23;11.30;99.90